sensor_id;sensor_type;location;lat;lon;timestamp;temperature;humidity
20315;DHT22;10315;50.958;13.080;2022-07-29T00:00:14;15.00;93.00
20315;DHT22;10315;50.958;13.080;2022-07-29T00:10:45;15.10;92.80
20315;DHT22;10315;50.958;13.080;2022-07-29T00:20:49;15.20;92.40
20315;DHT22;10315;50.958;13.080;2022-07-29T00:30:54;15.00;93.60
20315;DHT22;10315;50.958;13.080;2022-07-29T00:41:09;14.50;94.50
20315;DHT22;10315;50.958;13.080;2022-07-29T00:51:21;14.30;97.20
20315;DHT22;10315;50.958;13.080;2022-07-29T01:01:33;14.90;96.00
20315;DHT22;10315;50.958;13.080;2022-07-29T01:11:42;14.80;97.10
20315;DHT22;10315;50.958;13.080;2022-07-29T01:21:51;14.40;99.90
20315;DHT22;10315;50.958;13.080;2022-07-29T01:32:03;14.70;99.90
20315;DHT22;10315;50.958;13.080;2022-07-29T01:42:20;14.60;99.90
20315;DHT22;10315;50.958;13.080;2022-07-29T01:52:38;14.90;99.90
20315;DHT22;10315;50.958;13.080;2022-07-29T02:02:46;14.60;99.90
20315;DHT22;10315;50.958;13.080;2022-07-29T02:12:51;14.30;99.90
20315;DHT22;10315;50.958;13.080;2022-07-29T02:23:01;14.50;99.90
20315;DHT22;10315;50.958;13.080;2022-07-29T02:33:15;14.60;99.90
20315;DHT22;10315;50.958;13.080;2022-07-29T02:43:43;14.50;99.90
20315;DHT22;10315;50.958;13.080;2022-07-29T02:53:59;14.80;99.90
20315;DHT22;10315;50.958;13.080;2022-07-29T03:04:08;14.60;99.90
20315;DHT22;10315;50.958;13.080;2022-07-29T03:14:14;14.60;99.90
20315;DHT22;10315;50.958;13.080;2022-07-29T03:24:39;14.50;99.90
20315;DHT22;10315;50.958;13.080;2022-07-29T03:34:46;14.60;99.90
20315;DHT22;10315;50.958;13.080;2022-07-29T03:45:02;14.60;99.90
20315;DHT22;10315;50.958;13.080;2022-07-29T03:55:24;14.50;99.90
20315;DHT22;10315;50.958;13.080;2022-07-29T04:05:41;15.00;99.90
20315;DHT22;10315;50.958;13.080;2022-07-29T04:15:47;15.30;99.90
20315;DHT22;10315;50.958;13.080;2022-07-29T04:25:52;15.50;99.90
20315;DHT22;10315;50.958;13.080;2022-07-29T04:35:56;15.80;99.90
20315;DHT22;10315;50.958;13.080;2022-07-29T04:46:05;16.10;99.90
20315;DHT22;10315;50.958;13.080;2022-07-29T04:56:09;16.40;99.90
20315;DHT22;10315;50.958;13.080;2022-07-29T05:06:12;16.80;99.90
20315;DHT22;10315;50.958;13.080;2022-07-29T05:16:29;17.20;99.90
20315;DHT22;10315;50.958;13.080;2022-07-29T05:26:36;17.90;99.90
20315;DHT22;10315;50.958;13.080;2022-07-29T05:36:42;18.20;99.90
20315;DHT22;10315;50.958;13.080;2022-07-29T05:46:47;18.50;99.90
20315;DHT22;10315;50.958;13.080;2022-07-29T05:57:06;19.60;99.90
20315;DHT22;10315;50.958;13.080;2022-07-29T06:07:26;20.00;99.90
20315;DHT22;10315;50.958;13.080;2022-07-29T06:17:42;20.90;99.90
20315;DHT22;10315;50.958;13.080;2022-07-29T06:27:47;21.20;99.90
20315;DHT22;10315;50.958;13.080;2022-07-29T06:38:16;21.60;99.90
20315;DHT22;10315;50.958;13.080;2022-07-29T06:48:21;22.00;99.90
20315;DHT22;10315;50.958;13.080;2022-07-29T06:58:37;22.20;99.90
20315;DHT22;10315;50.958;13.080;2022-07-29T07:08:51;22.70;99.90
20315;DHT22;10315;50.958;13.080;2022-07-29T07:19:34;23.50;98.40
20315;DHT22;10315;50.958;13.080;2022-07-29T07:29:45;23.00;98.70
20315;DHT22;10315;50.958;13.080;2022-07-29T07:39:59;23.30;98.70
20315;DHT22;10315;50.958;13.080;2022-07-29T07:50:08;24.00;97.80
20315;DHT22;10315;50.958;13.080;2022-07-29T08:00:19;24.00;96.40
20315;DHT22;10315;50.958;13.080;2022-07-29T08:10:31;24.30;95.70
20315;DHT22;10315;50.958;13.080;2022-07-29T08:20:58;23.90;95.80
20315;DHT22;10315;50.958;13.080;2022-07-29T08:31:02;25.10;93.80
20315;DHT22;10315;50.958;13.080;2022-07-29T08:41:08;25.40;93.70
20315;DHT22;10315;50.958;13.080;2022-07-29T08:51:25;30.20;84.10
20315;DHT22;10315;50.958;13.080;2022-07-29T09:01:34;40.10;54.50
20315;DHT22;10315;50.958;13.080;2022-07-29T09:11:41;41.60;47.10
20315;DHT22;10315;50.958;13.080;2022-07-29T09:21:48;39.10;48.00
20315;DHT22;10315;50.958;13.080;2022-07-29T09:42:42;44.00;43.40
20315;DHT22;10315;50.958;13.080;2022-07-29T09:52:51;42.40;42.90
20315;DHT22;10315;50.958;13.080;2022-07-29T10:13:41;39.20;45.50
20315;DHT22;10315;50.958;13.080;2022-07-29T10:23:53;39.80;45.10
20315;DHT22;10315;50.958;13.080;2022-07-29T10:34:07;33.30;52.40
20315;DHT22;10315;50.958;13.080;2022-07-29T10:44:31;32.40;55.40
20315;DHT22;10315;50.958;13.080;2022-07-29T10:54:47;31.00;57.90
20315;DHT22;10315;50.958;13.080;2022-07-29T11:05:20;31.30;57.30
20315;DHT22;10315;50.958;13.080;2022-07-29T11:15:56;31.80;55.20
20315;DHT22;10315;50.958;13.080;2022-07-29T11:26:20;32.40;53.80
20315;DHT22;10315;50.958;13.080;2022-07-29T11:37:10;33.40;52.90
20315;DHT22;10315;50.958;13.080;2022-07-29T11:47:21;31.00;55.60
20315;DHT22;10315;50.958;13.080;2022-07-29T11:57:30;30.20;56.40
20315;DHT22;10315;50.958;13.080;2022-07-29T12:07:40;30.40;56.50
20315;DHT22;10315;50.958;13.080;2022-07-29T12:18:20;29.50;57.30
20315;DHT22;10315;50.958;13.080;2022-07-29T12:28:29;29.80;57.70
20315;DHT22;10315;50.958;13.080;2022-07-29T12:38:43;31.10;55.70
20315;DHT22;10315;50.958;13.080;2022-07-29T12:48:52;31.90;54.60
20315;DHT22;10315;50.958;13.080;2022-07-29T12:59:21;31.60;55.00
20315;DHT22;10315;50.958;13.080;2022-07-29T13:09:37;31.90;54.80
20315;DHT22;10315;50.958;13.080;2022-07-29T13:20:03;30.90;55.60
20315;DHT22;10315;50.958;13.080;2022-07-29T13:30:12;30.90;55.60
20315;DHT22;10315;50.958;13.080;2022-07-29T13:40:27;32.10;53.40
20315;DHT22;10315;50.958;13.080;2022-07-29T13:50:40;30.10;56.30
20315;DHT22;10315;50.958;13.080;2022-07-29T14:01:00;29.80;56.70
20315;DHT22;10315;50.958;13.080;2022-07-29T14:11:32;28.60;59.10
20315;DHT22;10315;50.958;13.080;2022-07-29T14:21:44;28.40;59.40
20315;DHT22;10315;50.958;13.080;2022-07-29T14:31:56;28.00;60.10
20315;DHT22;10315;50.958;13.080;2022-07-29T14:42:13;28.10;60.10
20315;DHT22;10315;50.958;13.080;2022-07-29T14:52:32;27.40;61.30
20315;DHT22;10315;50.958;13.080;2022-07-29T15:02:40;26.90;64.10
20315;DHT22;10315;50.958;13.080;2022-07-29T15:13:08;25.90;71.60
20315;DHT22;10315;50.958;13.080;2022-07-29T15:23:32;25.20;80.90
20315;DHT22;10315;50.958;13.080;2022-07-29T15:33:46;24.50;88.50
20315;DHT22;10315;50.958;13.080;2022-07-29T15:43:57;23.90;97.80
20315;DHT22;10315;50.958;13.080;2022-07-29T15:54:23;21.60;99.90
20315;DHT22;10315;50.958;13.080;2022-07-29T16:04:29;21.10;99.90
20315;DHT22;10315;50.958;13.080;2022-07-29T16:14:36;21.20;99.90
20315;DHT22;10315;50.958;13.080;2022-07-29T16:24:48;21.80;99.90
20315;DHT22;10315;50.958;13.080;2022-07-29T16:35:04;22.10;99.90
20315;DHT22;10315;50.958;13.080;2022-07-29T16:45:25;22.30;99.90
20315;DHT22;10315;50.958;13.080;2022-07-29T16:55:34;21.80;99.90
20315;DHT22;10315;50.958;13.080;2022-07-29T17:05:37;21.60;99.90
20315;DHT22;10315;50.958;13.080;2022-07-29T17:15:54;21.60;99.90
20315;DHT22;10315;50.958;13.080;2022-07-29T17:26:05;21.60;99.90
20315;DHT22;10315;50.958;13.080;2022-07-29T17:36:16;21.60;99.90
20315;DHT22;10315;50.958;13.080;2022-07-29T17:46:39;21.50;99.90
20315;DHT22;10315;50.958;13.080;2022-07-29T17:56:45;21.40;99.90
20315;DHT22;10315;50.958;13.080;2022-07-29T18:06:55;21.00;99.90
20315;DHT22;10315;50.958;13.080;2022-07-29T18:17:10;20.60;99.90
20315;DHT22;10315;50.958;13.080;2022-07-29T18:27:19;20.50;99.90
20315;DHT22;10315;50.958;13.080;2022-07-29T18:37:28;20.20;99.90
20315;DHT22;10315;50.958;13.080;2022-07-29T18:47:35;20.00;99.90
20315;DHT22;10315;50.958;13.080;2022-07-29T18:57:44;19.80;99.90
20315;DHT22;10315;50.958;13.080;2022-07-29T19:07:47;19.50;99.90
20315;DHT22;10315;50.958;13.080;2022-07-29T19:17:54;19.60;99.90
20315;DHT22;10315;50.958;13.080;2022-07-29T19:28:03;19.40;99.90
20315;DHT22;10315;50.958;13.080;2022-07-29T19:38:14;19.20;99.90
20315;DHT22;10315;50.958;13.080;2022-07-29T19:48:31;19.30;99.90
20315;DHT22;10315;50.958;13.080;2022-07-29T19:58:40;19.30;99.90
20315;DHT22;10315;50.958;13.080;2022-07-29T20:08:49;19.00;99.90
20315;DHT22;10315;50.958;13.080;2022-07-29T20:19:09;19.00;99.90
20315;DHT22;10315;50.958;13.080;2022-07-29T20:29:17;19.00;99.90
20315;DHT22;10315;50.958;13.080;2022-07-29T20:39:26;19.30;99.90
20315;DHT22;10315;50.958;13.080;2022-07-29T20:49:36;19.00;99.90
20315;DHT22;10315;50.958;13.080;2022-07-29T20:59:56;18.80;99.90
20315;DHT22;10315;50.958;13.080;2022-07-29T21:20:36;18.70;99.90
20315;DHT22;10315;50.958;13.080;2022-07-29T21:30:51;18.70;99.90
20315;DHT22;10315;50.958;13.080;2022-07-29T21:41:00;17.60;99.90
20315;DHT22;10315;50.958;13.080;2022-07-29T21:51:16;16.90;99.90
20315;DHT22;10315;50.958;13.080;2022-07-29T22:01:29;16.60;99.90
20315;DHT22;10315;50.958;13.080;2022-07-29T22:11:48;16.40;99.90
20315;DHT22;10315;50.958;13.080;2022-07-29T22:21:58;16.50;99.90
20315;DHT22;10315;50.958;13.080;2022-07-29T22:43:24;16.80;99.90
20315;DHT22;10315;50.958;13.080;2022-07-29T22:53:52;16.80;99.90
20315;DHT22;10315;50.958;13.080;2022-07-29T23:04:04;16.70;99.90
20315;DHT22;10315;50.958;13.080;2022-07-29T23:14:14;16.70;99.90
20315;DHT22;10315;50.958;13.080;2022-07-29T23:24:27;16.70;99.90
20315;DHT22;10315;50.958;13.080;2022-07-29T23:34:42;16.60;99.90
20315;DHT22;10315;50.958;13.080;2022-07-29T23:44:49;16.60;99.90
20315;DHT22;10315;50.958;13.080;2022-07-29T23:55:03;16.50;99.90
